Terminal Aerodrome Forecast
Issued by NWS Tampa Bay Area, FL

Home | Current Version | Previous Version | Text Only | Print | Product List | Glossary On
Versions: 1 2 3 4 5 6 7 8 9 10 11 12 13 14 15 16 17 18 19 20 21 22 23 24 25 26 27 28 29 30 31 32
000
FTUS42 KTBW 270500 RRA
TAFTPA
TAF
KTPA 270541Z 2706/2806 05005KT P6SM SCT010 OVC030
     FM270900 04003KT 6SM BR SCT005 OVC025
     FM271200 06004KT P6SM SCT005 OVC020
     FM271600 06005KT P6SM SCT015 OVC025
     FM271900 26005KT P6SM SCT025 OVC050
     FM280200 04003KT P6SM SCT025 OVC050=

USA.gov is the U.S. government's official web portal to all federal, state and local government web resources and services.